Time;durP1;ratioP1;P1;durP2;ratioP2;P2;SDS_P1;SDS_P2;PMS_P1;PMS_P2;Temp;Humidity;BMP_temperature;BMP_pressure;BME280_temperature;BME280_humidity;BME280_pressure;Samples;Min_cycle;Max_cycle;Signal;HPM_P1;HPM_P2
2022/08/18 00:00:29;;;;;;;10.23;5.55;;;22.80;99.90;;;;;;5041513;28;20029;-81
2022/08/18 00:03:00;;;;;;;12.70;5.90;;;22.80;99.90;;;;;;5023362;28;20152;-82
2022/08/18 00:05:26;;;;;;;9.82;5.97;;;22.80;99.90;;;;;;4992482;28;20022;-82
2022/08/18 00:07:52;;;;;;;13.63;5.73;;;22.80;99.90;;;;;;5008059;28;20387;-82
2022/08/18 00:10:17;;;;;;;9.40;5.93;;;22.80;99.90;;;;;;5024778;28;20085;-81
2022/08/18 00:12:43;;;;;;;10.47;5.87;;;22.80;99.90;;;;;;5025378;28;20075;-82
2022/08/18 00:15:12;;;;;;;10.93;5.60;;;22.80;99.90;;;;;;5026156;28;20029;-81
2022/08/18 00:17:38;;;;;;;5.85;5.22;;;22.80;99.90;;;;;;4976247;28;20060;-81
2022/08/18 00:20:09;;;;;;;9.13;5.60;;;22.80;99.90;;;;;;4991685;28;20030;-81
2022/08/18 00:22:35;;;;;;;12.18;5.88;;;22.80;99.90;;;;;;5006793;28;20332;-81
2022/08/18 00:25:01;;;;;;;12.98;5.65;;;22.80;99.90;;;;;;4990194;28;20025;-81
2022/08/18 00:27:29;;;;;;;10.13;5.78;;;22.70;99.90;;;;;;5038738;28;20089;-82
2022/08/18 00:29:57;;;;;;;10.25;4.70;;;22.50;99.90;;;;;;5039138;28;20061;-81
2022/08/18 00:32:26;;;;;;;9.15;5.00;;;22.30;99.90;;;;;;5038511;28;20026;-82
2022/08/18 00:34:52;;;;;;;11.95;5.05;;;22.30;99.90;;;;;;5006255;28;20035;-82
2022/08/18 00:37:18;;;;;;;6.78;4.70;;;22.30;99.90;;;;;;5006091;28;20041;-81
2022/08/18 00:39:44;;;;;;;9.45;4.43;;;22.40;99.90;;;;;;5024055;28;20399;-81
2022/08/18 00:42:21;;;;;;;10.10;4.70;;;22.50;99.90;;;;;;4989269;28;20104;-82
2022/08/18 00:44:48;;;;;;;10.57;4.22;;;22.50;99.90;;;;;;5005951;28;20018;-82
2022/08/18 00:47:13;;;;;;;6.05;4.35;;;22.60;99.90;;;;;;5020552;28;20041;-80
2022/08/18 00:49:41;;;;;;;7.27;4.37;;;22.60;99.90;;;;;;5001989;28;20060;-81
2022/08/18 00:52:06;;;;;;;11.27;4.72;;;22.60;99.90;;;;;;5018181;28;20380;-81
2022/08/18 00:54:32;;;;;;;6.80;4.43;;;22.70;99.90;;;;;;5018116;28;20045;-83
2022/08/18 00:57:04;;;;;;;6.15;3.70;;;22.80;99.90;;;;;;5018659;28;21904;-82
2022/08/18 00:59:54;;;;;;;8.27;4.05;;;22.80;99.90;;;;;;5036967;28;20364;-82
2022/08/18 01:02:25;;;;;;;11.95;4.18;;;22.90;99.20;;;;;;5036950;28;20044;-82
2022/08/18 01:04:56;;;;;;;10.85;4.50;;;23.00;98.50;;;;;;4989483;28;20036;-82
2022/08/18 01:07:31;;;;;;;8.23;4.38;;;23.10;97.80;;;;;;4989963;28;20081;-81
2022/08/18 01:09:58;;;;;;;5.82;3.72;;;23.20;96.80;;;;;;4971217;28;20061;-81
2022/08/18 01:12:25;;;;;;;5.40;3.60;;;23.20;97.10;;;;;;5017859;28;20026;-81
2022/08/18 01:14:51;;;;;;;5.50;3.75;;;23.20;97.90;;;;;;5017727;28;20030;-80
2022/08/18 01:22:48;;;;;;;8.98;3.80;;;23.30;98.40;;;;;;5013872;28;20030;-80
2022/08/18 01:28:02;;;;;;;8.02;4.20;;;23.30;99.10;;;;;;4988296;28;20395;-80
2022/08/18 01:30:28;;;;;;;6.22;3.67;;;23.30;99.60;;;;;;5001782;28;20026;-81
2022/08/18 01:32:54;;;;;;;5.95;4.20;;;23.30;99.20;;;;;;5001415;28;20037;-81
2022/08/18 01:35:21;;;;;;;8.40;4.10;;;23.30;99.90;;;;;;5001861;28;20034;-80
2022/08/18 01:37:47;;;;;;;11.38;4.28;;;23.30;99.90;;;;;;4985796;28;20061;-80
2022/08/18 01:40:15;;;;;;;11.27;4.50;;;23.30;99.90;;;;;;4972306;28;20309;-80
2022/08/18 01:42:43;;;;;;;8.13;4.32;;;23.20;99.90;;;;;;5005219;28;20037;-80
2022/08/18 01:45:10;;;;;;;10.70;4.57;;;23.20;99.90;;;;;;5005787;28;20072;-80
2022/08/18 01:47:39;;;;;;;10.70;4.97;;;23.20;99.90;;;;;;4973825;28;20034;-80
2022/08/18 01:50:06;;;;;;;6.82;4.85;;;23.10;99.90;;;;;;5024443;28;20022;-81
2022/08/18 01:52:32;;;;;;;9.98;4.82;;;23.00;99.90;;;;;;5041527;28;20021;-81
2022/08/18 01:54:58;;;;;;;7.18;5.07;;;22.90;99.90;;;;;;5025287;28;20225;-81
2022/08/18 01:57:24;;;;;;;6.55;5.43;;;22.80;99.90;;;;;;5008820;28;20022;-80
2022/08/18 01:59:50;;;;;;;9.27;5.57;;;22.70;99.90;;;;;;5008696;28;20022;-80
2022/08/18 02:02:23;;;;;;;8.73;5.20;;;22.60;99.90;;;;;;5024986;28;20225;-80
2022/08/18 02:04:55;;;;;;;8.50;5.32;;;22.50;99.90;;;;;;4990103;28;20289;-81
2022/08/18 02:07:21;;;;;;;6.45;5.32;;;22.40;99.90;;;;;;4989201;28;20022;-81
2022/08/18 02:09:47;;;;;;;13.18;5.72;;;22.30;99.90;;;;;;4989156;28;20037;-81
2022/08/18 02:12:12;;;;;;;9.70;5.17;;;22.30;99.90;;;;;;4988835;28;20022;-80
2022/08/18 02:14:38;;;;;;;8.68;4.85;;;22.20;99.90;;;;;;4988865;28;20023;-81
2022/08/18 02:17:06;;;;;;;9.30;5.20;;;22.10;99.90;;;;;;5005408;28;20325;-81
2022/08/18 02:19:37;;;;;;;9.40;5.68;;;22.20;99.90;;;;;;5005173;28;20018;-80
2022/08/18 02:22:03;;;;;;;6.05;5.35;;;22.10;99.90;;;;;;4995822;28;20442;-80
2022/08/18 02:24:29;;;;;;;8.77;5.43;;;22.10;99.90;;;;;;5008356;28;20025;-80
2022/08/18 02:26:55;;;;;;;10.43;5.87;;;22.00;99.90;;;;;;5026777;28;20026;-80
2022/08/18 02:29:21;;;;;;;9.03;6.20;;;22.00;99.90;;;;;;4994483;28;20273;-80
2022/08/18 02:31:46;;;;;;;7.57;6.13;;;22.00;99.90;;;;;;5026961;28;20022;-80
2022/08/18 02:34:14;;;;;;;8.20;6.07;;;21.90;99.90;;;;;;5009493;28;20042;-81
2022/08/18 02:36:40;;;;;;;11.63;6.32;;;21.90;99.90;;;;;;5025028;28;20026;-81
2022/08/18 02:39:05;;;;;;;9.03;6.03;;;21.80;99.90;;;;;;5008608;28;20030;-80
2022/08/18 02:41:31;;;;;;;8.33;5.90;;;21.80;99.90;;;;;;5025419;28;20026;-81
2022/08/18 02:43:58;;;;;;;8.13;6.32;;;21.80;99.90;;;;;;5025855;28;20022;-87
2022/08/18 02:46:25;;;;;;;9.23;6.57;;;21.70;99.90;;;;;;4976592;28;20221;-84
2022/08/18 02:48:54;;;;;;;11.32;6.97;;;21.50;99.90;;;;;;5026448;28;20037;-84
2022/08/18 02:51:20;;;;;;;9.23;6.80;;;21.40;99.90;;;;;;5027478;28;20430;-85
2022/08/18 02:53:46;;;;;;;11.73;7.20;;;21.40;99.90;;;;;;5009637;28;20025;-84
2022/08/18 02:56:28;;;;;;;9.55;7.55;;;21.30;99.90;;;;;;4995881;28;20026;-83
2022/08/18 02:58:58;;;;;;;12.90;7.43;;;21.30;99.90;;;;;;5028647;28;20033;-83
2022/08/18 03:01:28;;;;;;;12.02;7.47;;;21.30;99.90;;;;;;5012089;28;20021;-83
2022/08/18 03:03:55;;;;;;;11.63;6.60;;;21.30;99.90;;;;;;4997099;28;20029;-84
2022/08/18 03:06:21;;;;;;;11.02;6.78;;;21.30;99.90;;;;;;5023315;28;20027;-84
2022/08/18 03:08:49;;;;;;;11.68;6.47;;;21.30;99.90;;;;;;5021444;28;20029;-84
2022/08/18 03:11:20;;;;;;;11.80;6.70;;;21.30;99.90;;;;;;5005315;28;20030;-84
2022/08/18 03:13:46;;;;;;;9.75;6.60;;;21.30;99.90;;;;;;5021645;28;20034;-84
2022/08/18 03:16:13;;;;;;;9.63;6.17;;;21.30;99.90;;;;;;5023097;28;20026;-84
2022/08/18 03:18:40;;;;;;;;;;;21.30;99.90;;;;;;5010259;28;20038;-84
2022/08/18 03:21:08;;;;;;;11.77;7.60;;;21.20;99.90;;;;;;4994218;28;19914;-84
2022/08/18 03:23:35;;;;;;;8.50;6.35;;;21.20;99.90;;;;;;5023385;28;20021;-84
2022/08/18 03:26:00;;;;;;;11.27;7.47;;;21.10;99.90;;;;;;4986829;28;20017;-84
2022/08/18 03:28:27;;;;;;;13.13;7.67;;;21.00;99.90;;;;;;5032832;28;20061;-84
2022/08/18 03:30:53;;;;;;;;;;;20.90;99.90;;;;;;5018732;28;20052;-84
2022/08/18 03:33:19;;;;;;;9.75;7.63;;;20.80;99.90;;;;;;5017381;28;19898;-84
2022/08/18 03:35:45;;;;;;;11.93;7.93;;;20.80;99.90;;;;;;5002037;28;20136;-84
2022/08/18 03:38:10;;;;;;;10.10;7.77;;;20.80;99.90;;;;;;5027811;28;20360;-84
2022/08/18 03:40:36;;;;;;;11.77;7.87;;;20.70;99.90;;;;;;5004066;28;20030;-84
2022/08/18 03:43:06;;;;;;;12.50;9.17;;;20.80;99.90;;;;;;5037800;28;20060;-85
2022/08/18 03:45:33;;;;;;;11.98;7.43;;;20.70;99.90;;;;;;5006781;28;20026;-84
2022/08/18 03:48:00;;;;;;;7.95;6.45;;;20.70;99.90;;;;;;5037544;28;20038;-85
2022/08/18 03:50:29;;;;;;;16.77;8.55;;;20.70;99.90;;;;;;5019155;28;20021;-84
2022/08/18 03:52:58;;;;;;;12.93;8.07;;;20.70;99.90;;;;;;5024429;28;20026;-85
2022/08/18 03:55:27;;;;;;;11.05;7.50;;;20.60;99.90;;;;;;5024820;28;20018;-84
2022/08/18 03:57:56;;;;;;;10.15;8.27;;;20.60;99.90;;;;;;5010913;28;20033;-84
2022/08/18 04:00:22;;;;;;;13.95;7.95;;;20.70;99.90;;;;;;4995211;28;20022;-84
2022/08/18 04:02:48;;;;;;;11.10;8.70;;;20.60;99.90;;;;;;5043650;28;20336;-84
2022/08/18 04:05:13;;;;;;;10.67;7.87;;;20.60;99.90;;;;;;4989321;28;20050;-84
2022/08/18 04:07:39;;;;;;;9.40;7.80;;;20.60;99.90;;;;;;5027186;28;20026;-83
2022/08/18 04:10:06;;;;;;;9.30;7.53;;;20.50;99.90;;;;;;5008828;28;20077;-83
2022/08/18 04:12:31;;;;;;;10.80;8.20;;;20.50;99.90;;;;;;5008318;28;20034;-83
2022/08/18 04:14:57;;;;;;;10.73;7.77;;;20.50;99.90;;;;;;5007799;28;20057;-83
2022/08/18 04:17:23;;;;;;;12.03;8.20;;;20.60;99.90;;;;;;5024057;28;20026;-83
2022/08/18 04:19:53;;;;;;;10.63;8.70;;;20.50;99.90;;;;;;5023806;28;20018;-83
2022/08/18 04:22:19;;;;;;;12.13;9.07;;;20.50;99.90;;;;;;5023474;28;20233;-83
2022/08/18 04:24:45;;;;;;;12.53;8.63;;;20.50;99.90;;;;;;5023326;28;20026;-83
2022/08/18 04:27:11;;;;;;;12.07;8.82;;;20.50;99.90;;;;;;5023641;28;20041;-83
2022/08/18 04:29:37;;;;;;;12.65;8.90;;;20.50;99.90;;;;;;5023658;28;20034;-83
2022/08/18 04:32:03;;;;;;;13.50;9.87;;;20.50;99.90;;;;;;5023473;28;20096;-83
2022/08/18 04:34:29;;;;;;;9.93;8.75;;;20.50;99.90;;;;;;4993423;28;20089;-84
2022/08/18 04:36:55;;;;;;;10.73;8.77;;;20.50;99.90;;;;;;5034435;28;20033;-84
2022/08/18 04:39:21;;;;;;;14.97;9.83;;;20.50;99.90;;;;;;5028763;28;20329;-84
2022/08/18 04:41:47;;;;;;;12.65;9.63;;;20.50;99.90;;;;;;5031754;28;20014;-83
2022/08/18 04:44:16;;;;;;;13.40;9.73;;;20.50;99.90;;;;;;4983431;28;20026;-83
2022/08/18 04:46:47;;;;;;;11.73;9.02;;;20.40;99.90;;;;;;4999546;28;20017;-83
2022/08/18 04:49:14;;;;;;;10.70;9.00;;;20.40;99.90;;;;;;5038540;28;20033;-83
2022/08/18 04:51:43;;;;;;;13.65;10.13;;;20.40;99.90;;;;;;5034226;28;20021;-84
2022/08/18 04:54:09;;;;;;;11.65;8.98;;;20.50;99.90;;;;;;5031884;28;20321;-84
2022/08/18 04:56:36;;;;;;;;;;;20.40;99.90;;;;;;5027398;28;20021;-83
2022/08/18 04:59:08;;;;;;;12.23;9.27;;;20.40;99.90;;;;;;5044633;28;19952;-84
2022/08/18 05:01:44;;;;;;;12.60;9.15;;;20.40;99.90;;;;;;5024671;28;20038;-83
2022/08/18 05:04:12;;;;;;;12.45;9.52;;;20.40;99.90;;;;;;5035203;28;20018;-83
2022/08/18 05:06:40;;;;;;;13.15;9.25;;;20.40;99.90;;;;;;4994554;28;20037;-83
2022/08/18 05:09:07;;;;;;;14.10;9.13;;;20.40;99.90;;;;;;5032883;28;20022;-84
2022/08/18 05:11:33;;;;;;;10.13;8.90;;;20.40;99.90;;;;;;5014461;28;20042;-86
2022/08/18 05:14:00;;;;;;;15.00;9.40;;;20.40;99.90;;;;;;5023651;28;20030;-85
2022/08/18 05:16:27;;;;;;;12.52;10.27;;;20.40;99.90;;;;;;5008288;28;20073;-87
2022/08/18 05:18:53;;;;;;;15.70;11.15;;;20.40;99.90;;;;;;5024071;28;20036;-86
2022/08/18 05:21:20;;;;;;;14.25;10.68;;;20.40;99.90;;;;;;5021843;28;20022;-87
2022/08/18 05:23:48;;;;;;;13.07;10.43;;;20.40;99.90;;;;;;5026566;28;20080;-85
2022/08/18 05:26:16;;;;;;;17.85;10.95;;;20.40;99.90;;;;;;5012086;28;20017;-86
2022/08/18 05:28:42;;;;;;;16.48;11.45;;;20.40;99.90;;;;;;5029917;28;20033;-85
2022/08/18 05:31:15;;;;;;;11.55;10.18;;;20.40;99.90;;;;;;5033861;28;20033;-86
2022/08/18 05:33:41;;;;;;;13.65;10.68;;;20.50;99.90;;;;;;5018406;28;20030;-85
2022/08/18 05:36:42;;;;;;;12.20;9.83;;;20.50;99.90;;;;;;5027241;28;20053;-85
2022/08/18 05:39:22;;;;;;;13.38;10.23;;;20.60;99.90;;;;;;5027186;28;20062;-85
2022/08/18 05:42:10;;;;;;;12.45;10.15;;;20.60;99.90;;;;;;5008335;28;20023;-86
2022/08/18 05:44:41;;;;;;;45.83;14.95;;;20.60;99.90;;;;;;5005813;28;20023;-86
2022/08/18 05:47:30;;;;;;;39.40;13.73;;;20.60;99.90;;;;;;5022604;28;20177;-85
2022/08/18 05:50:10;;;;;;;58.47;16.38;;;20.70;99.90;;;;;;4993402;28;20026;-85
2022/08/18 05:52:57;;;;;;;32.38;12.27;;;20.80;99.90;;;;;;4983411;28;20030;-86
2022/08/18 05:58:20;;;;;;;15.50;10.05;;;20.80;99.90;;;;;;5024278;28;20076;-85
2022/08/18 06:00:52;;;;;;;13.88;9.82;;;20.70;99.90;;;;;;5025947;28;20029;-90
2022/08/18 06:03:25;;;;;;;15.45;9.85;;;20.80;99.90;;;;;;5013704;28;20045;-85
2022/08/18 06:06:07;;;;;;;13.02;10.40;;;20.80;99.90;;;;;;4975728;28;20018;-84
2022/08/18 06:08:45;;;;;;;11.32;10.10;;;20.90;99.90;;;;;;4972451;28;20018;-84
2022/08/18 06:11:10;;;;;;;12.00;9.73;;;20.90;99.90;;;;;;4974040;28;20256;-70
2022/08/18 06:13:39;;;;;;;14.17;11.53;;;20.90;99.90;;;;;;5010306;28;20037;-69
2022/08/18 06:16:40;;;;;;;15.07;11.02;;;20.90;99.90;;;;;;5020773;28;20033;-69
2022/08/18 06:19:16;;;;;;;14.25;10.45;;;20.90;99.90;;;;;;5019513;28;20052;-69
2022/08/18 06:22:19;;;;;;;11.32;8.85;;;20.90;99.90;;;;;;5021411;28;20379;-69
2022/08/18 06:25:15;;;;;;;10.88;9.10;;;20.90;99.90;;;;;;5021352;28;20026;-69
2022/08/18 06:27:55;;;;;;;13.75;9.50;;;21.00;99.90;;;;;;5023213;28;20089;-69
2022/08/18 06:31:08;;;;;;;14.65;10.02;;;21.00;99.90;;;;;;5024137;28;20566;-69
2022/08/18 06:34:01;;;;;;;13.65;9.70;;;21.00;99.90;;;;;;5003252;28;20026;-68
2022/08/18 06:36:52;;;;;;;14.20;10.10;;;21.00;99.90;;;;;;5024527;28;20105;-69
2022/08/18 06:39:47;;;;;;;14.50;9.45;;;21.00;99.90;;;;;;5023998;28;20029;-69
2022/08/18 06:42:25;;;;;;;13.25;10.07;;;21.00;99.90;;;;;;5023713;28;20100;-69
2022/08/18 06:45:11;;;;;;;14.13;10.18;;;21.00;99.90;;;;;;5024424;28;20090;-69
2022/08/18 06:47:59;;;;;;;11.18;9.48;;;20.90;99.90;;;;;;5024706;28;20049;-69
2022/08/18 06:50:55;;;;;;;14.68;10.55;;;20.90;99.90;;;;;;5039704;28;20033;-69
2022/08/18 06:53:21;;;;;;;16.13;10.30;;;20.90;99.90;;;;;;5033870;28;20238;-69
2022/08/18 06:55:48;;;;;;;10.07;8.67;;;20.90;99.90;;;;;;5040097;28;20025;-69
2022/08/18 06:58:17;;;;;;;12.18;8.32;;;21.00;99.90;;;;;;5023507;28;20251;-69
2022/08/18 07:00:54;;;;;;;11.77;9.23;;;21.20;99.90;;;;;;5024318;28;20028;-69
2022/08/18 07:03:22;;;;;;;;;;;21.20;99.90;;;;;;5023833;28;20079;-69
2022/08/18 07:06:22;;;;;;;12.73;9.80;;;21.30;99.90;;;;;;5007495;28;20172;-69
2022/08/18 07:08:53;;;;;;;15.45;11.32;;;21.30;99.90;;;;;;5023656;28;20026;-68
2022/08/18 07:11:24;;;;;;;10.48;8.63;;;21.30;99.90;;;;;;5024588;28;20026;-69
2022/08/18 07:13:53;;;;;;;12.30;9.55;;;21.30;99.90;;;;;;5024300;28;20024;-69
2022/08/18 07:16:37;;;;;;;16.38;10.55;;;21.40;99.90;;;;;;5023075;28;20022;-69
2022/08/18 07:19:11;;;;;;;17.80;10.23;;;21.40;99.90;;;;;;5024229;28;20065;-69
2022/08/18 07:21:39;;;;;;;12.77;9.35;;;21.50;99.90;;;;;;5023970;28;20297;-69
2022/08/18 07:24:37;;;;;;;18.80;10.80;;;21.50;99.90;;;;;;5023976;28;20043;-69
2022/08/18 07:27:12;;;;;;;15.23;9.63;;;21.60;99.90;;;;;;5022014;28;20029;-70
2022/08/18 07:30:09;;;;;;;14.32;9.88;;;21.70;99.90;;;;;;5004554;28;20026;-69
2022/08/18 07:32:58;;;;;;;14.35;9.27;;;21.70;99.90;;;;;;5005336;28;20049;-69
2022/08/18 07:35:48;;;;;;;11.82;9.07;;;21.80;99.90;;;;;;5016905;28;20022;-69
2022/08/18 07:38:29;;;;;;;12.82;9.73;;;21.90;99.90;;;;;;5016592;28;20454;-69
2022/08/18 07:41:08;;;;;;;14.82;9.50;;;22.00;99.90;;;;;;5019491;28;20022;-68
2022/08/18 07:43:52;;;;;;;13.68;10.95;;;22.10;99.90;;;;;;5002714;28;20033;-67
2022/08/18 07:46:59;;;;;;;13.90;10.25;;;22.10;99.90;;;;;;5003442;28;20080;-67
2022/08/18 07:49:29;;;;;;;11.68;9.07;;;22.10;99.90;;;;;;4982709;28;20031;-68
2022/08/18 07:52:05;;;;;;;12.10;9.43;;;22.10;99.90;;;;;;4977631;28;20030;-68
2022/08/18 07:54:49;;;;;;;11.97;7.70;;;22.20;99.90;;;;;;5002854;28;20486;-68
2022/08/18 07:57:54;;;;;;;9.55;7.50;;;22.30;99.90;;;;;;5003554;28;20256;-69
2022/08/18 08:00:23;;;;;;;10.63;7.75;;;22.40;99.90;;;;;;5004092;28;20037;-68
2022/08/18 08:03:22;;;;;;;8.90;7.55;;;22.50;99.90;;;;;;5001945;28;20050;-69
2022/08/18 08:06:28;;;;;;;13.82;9.20;;;22.60;99.90;;;;;;5002083;28;20030;-68
2022/08/18 08:09:00;;;;;;;9.80;8.38;;;22.60;99.90;;;;;;5003751;28;20039;-68
2022/08/18 08:11:36;;;;;;;10.65;8.07;;;22.60;99.90;;;;;;5018933;28;20026;-68
2022/08/18 08:14:42;;;;;;;14.57;8.80;;;22.60;99.90;;;;;;5018209;28;20084;-68
2022/08/18 08:17:42;;;;;;;14.38;9.48;;;22.70;99.90;;;;;;5015842;28;20054;-68
2022/08/18 08:20:17;;;;;;;11.98;9.05;;;22.80;99.90;;;;;;5015544;28;20376;-68
2022/08/18 08:23:03;;;;;;;12.10;7.82;;;22.90;99.90;;;;;;5017642;28;20076;-68
2022/08/18 08:25:47;;;;;;;9.25;7.82;;;23.00;99.90;;;;;;5018283;28;20049;-67
2022/08/18 08:28:48;;;;;;;11.10;8.93;;;23.10;99.90;;;;;;5009217;28;20053;-67
2022/08/18 08:31:45;;;;;;;11.40;9.55;;;23.20;99.90;;;;;;5008638;28;20052;-67
2022/08/18 08:34:15;;;;;;;10.32;7.78;;;23.20;99.90;;;;;;5021824;28;20356;-67
2022/08/18 08:36:44;;;;;;;10.80;8.43;;;23.30;99.90;;;;;;5021672;28;20033;-67
2022/08/18 08:39:36;;;;;;;11.68;9.32;;;23.30;99.90;;;;;;5005377;28;20022;-67
2022/08/18 08:42:15;;;;;;;10.43;8.57;;;23.40;99.90;;;;;;5021564;28;20033;-67
2022/08/18 08:44:53;;;;;;;11.10;8.25;;;23.40;99.90;;;;;;5005929;28;20026;-67
2022/08/18 08:47:43;;;;;;;10.25;8.35;;;23.40;99.90;;;;;;5005842;28;20018;-69
2022/08/18 08:50:35;;;;;;;8.70;7.57;;;23.40;99.90;;;;;;5002498;28;20060;-69
2022/08/18 08:53:21;;;;;;;9.07;7.20;;;23.40;99.90;;;;;;5002349;28;20030;-69
2022/08/18 08:55:51;;;;;;;8.05;7.25;;;23.50;99.90;;;;;;5015106;28;20018;-67
2022/08/18 08:58:36;;;;;;;11.15;8.30;;;23.60;99.90;;;;;;5001672;28;20310;-70
2022/08/18 09:01:02;;;;;;;10.55;7.43;;;23.60;99.90;;;;;;5000928;28;20026;-68
2022/08/18 09:03:47;;;;;;;10.90;7.40;;;23.70;99.90;;;;;;5001378;28;20025;-70
2022/08/18 09:06:34;;;;;;;8.55;7.18;;;23.80;99.90;;;;;;5011141;28;20033;-69
2022/08/18 09:09:14;;;;;;;;;;;23.80;99.90;;;;;;5006841;28;20089;-70
2022/08/18 09:12:08;;;;;;;8.82;6.53;;;23.90;99.90;;;;;;5021173;28;19913;-69
2022/08/18 09:14:52;;;;;;;12.13;7.47;;;23.90;99.90;;;;;;5001029;28;20428;-69
2022/08/18 09:17:36;;;;;;;9.25;7.82;;;24.00;99.90;;;;;;5002548;28;20026;-67
2022/08/18 09:20:33;;;;;;;9.40;7.75;;;24.00;99.90;;;;;;5017956;28;20025;-68
2022/08/18 09:23:10;;;;;;;8.15;7.22;;;24.20;99.90;;;;;;5037150;28;20024;-67
2022/08/18 09:25:36;;;;;;;10.50;7.43;;;24.20;99.90;;;;;;5037263;28;20053;-71
2022/08/18 09:28:18;;;;;;;8.43;7.43;;;24.30;99.90;;;;;;5021703;28;20202;-76
2022/08/18 09:30:47;;;;;;;8.65;6.93;;;24.30;99.90;;;;;;4990545;28;20229;-78
2022/08/18 09:33:40;;;;;;;9.57;7.35;;;24.30;99.90;;;;;;5022382;28;20021;-77
2022/08/18 09:36:52;;;;;;;10.73;7.28;;;24.40;99.90;;;;;;5022171;28;20093;-76
2022/08/18 09:42:50;;;;;;;8.85;7.57;;;24.50;99.90;;;;;;4997631;28;20387;-82
2022/08/18 09:45:31;;;;;;;8.25;7.20;;;24.50;99.90;;;;;;5009428;28;20310;-81
2022/08/18 09:48:11;;;;;;;8.48;7.05;;;24.50;99.90;;;;;;5039689;28;20101;-81
2022/08/18 09:51:14;;;;;;;9.65;7.65;;;24.50;99.90;;;;;;5042989;28;20010;-80
2022/08/18 09:53:46;;;;;;;9.40;6.97;;;24.60;99.90;;;;;;5021086;28;20045;-81
2022/08/18 09:56:14;;;;;;;13.98;7.05;;;24.60;99.90;;;;;;5040435;28;20224;-81
2022/08/18 09:58:52;;;;;;;9.35;6.95;;;24.80;99.90;;;;;;4989839;28;20021;-80
2022/08/18 10:01:21;;;;;;;8.30;7.07;;;24.80;99.90;;;;;;5024348;28;20068;-82
2022/08/18 10:04:25;;;;;;;9.02;6.85;;;24.80;99.90;;;;;;5025388;28;20018;-80
2022/08/18 10:06:51;;;;;;;8.10;7.03;;;24.90;99.90;;;;;;5026669;28;20040;-80
2022/08/18 10:09:27;;;;;;;10.77;7.35;;;24.90;99.90;;;;;;5009538;28;20017;-81
2022/08/18 10:12:09;;;;;;;10.20;7.00;;;25.00;99.90;;;;;;5026113;28;20600;-80
2022/08/18 10:14:56;;;;;;;11.98;7.70;;;25.10;99.90;;;;;;5009772;28;20083;-81
2022/08/18 10:17:53;;;;;;;10.57;7.85;;;25.10;99.90;;;;;;5027177;28;20085;-80
2022/08/18 10:20:59;;;;;;;8.20;7.25;;;25.20;99.90;;;;;;4990058;28;20073;-81
2022/08/18 10:23:54;;;;;;;8.25;6.78;;;25.20;99.90;;;;;;5023739;28;20049;-81
2022/08/18 10:26:29;;;;;;;10.23;7.38;;;25.20;99.90;;;;;;5022918;28;20026;-81
2022/08/18 10:28:59;;;;;;;31.75;8.82;;;25.30;99.90;;;;;;5007321;28;20022;-81
2022/08/18 10:31:26;;;;;;;10.23;6.22;;;25.40;99.90;;;;;;5022894;28;20030;-80
2022/08/18 10:34:09;;;;;;;7.97;6.53;;;25.50;99.90;;;;;;5007888;28;20038;-80
2022/08/18 10:36:48;;;;;;;9.18;6.72;;;25.50;99.90;;;;;;5007595;28;20026;-81
2022/08/18 10:39:21;;;;;;;7.63;6.63;;;25.60;99.90;;;;;;4991243;28;20097;-81
2022/08/18 10:42:09;;;;;;;9.00;7.05;;;25.60;99.90;;;;;;5008090;28;20026;-81
2022/08/18 10:44:45;;;;;;;9.30;8.25;;;25.70;99.90;;;;;;4993178;28;20018;-81
2022/08/18 10:47:24;;;;;;;9.68;7.68;;;25.70;99.90;;;;;;4999056;28;20028;-81
2022/08/18 10:49:50;;;;;;;10.27;7.22;;;25.70;99.90;;;;;;4992489;28;20073;-81
2022/08/18 10:52:34;;;;;;;9.23;7.80;;;25.70;99.90;;;;;;5043501;28;20026;-81
2022/08/18 10:55:14;;;;;;;8.75;6.82;;;25.70;99.90;;;;;;5024187;28;20053;-81
2022/08/18 10:58:27;;;;;;;7.97;7.18;;;25.70;99.90;;;;;;5007367;28;20091;-81
2022/08/18 11:01:33;;;;;;;8.55;7.05;;;25.90;99.90;;;;;;4989958;28;20026;-81
2022/08/18 11:04:29;;;;;;;11.40;7.63;;;26.00;99.90;;;;;;4990515;28;20056;-81
2022/08/18 11:07:11;;;;;;;8.10;7.28;;;26.10;99.90;;;;;;5004409;28;20044;-81
2022/08/18 11:09:37;;;;;;;8.02;6.85;;;26.10;99.90;;;;;;4992113;28;20487;-81
2022/08/18 11:12:04;;;;;;;10.30;7.22;;;26.10;99.90;;;;;;4973484;28;20045;-80
2022/08/18 11:14:46;;;;;;;9.13;6.82;;;26.20;99.90;;;;;;4973960;28;20056;-81
2022/08/18 11:17:40;;;;;;;7.97;6.88;;;26.10;99.90;;;;;;4991603;28;20030;-81
2022/08/18 11:20:08;;;;;;;8.38;7.47;;;26.20;99.90;;;;;;5001443;28;20501;-81
2022/08/18 11:22:34;;;;;;;8.13;7.32;;;26.20;99.90;;;;;;4993546;28;20018;-81
2022/08/18 11:25:02;;;;;;;9.60;6.85;;;26.30;99.90;;;;;;5008826;28;20029;-81
2022/08/18 11:27:30;;;;;;;10.48;6.68;;;26.30;99.90;;;;;;4992447;28;20088;-81
2022/08/18 11:30:00;;;;;;;8.70;6.82;;;26.30;99.90;;;;;;4992487;28;20030;-81
2022/08/18 11:32:31;;;;;;;7.88;7.13;;;26.40;99.90;;;;;;4977742;28;20037;-82
2022/08/18 11:34:57;;;;;;;8.40;7.10;;;26.50;99.90;;;;;;5019481;28;20030;-81
2022/08/18 11:37:38;;;;;;;8.30;6.77;;;26.60;99.90;;;;;;5027842;28;20282;-82
2022/08/18 11:40:10;;;;;;;7.80;6.75;;;26.70;99.90;;;;;;5025485;28;20502;-83
2022/08/18 11:42:38;;;;;;;7.70;6.93;;;26.80;99.90;;;;;;5025081;28;20095;-81
2022/08/18 11:45:18;;;;;;;9.30;7.00;;;26.80;99.90;;;;;;5042112;28;20030;-81
2022/08/18 11:48:18;;;;;;;8.52;7.15;;;26.90;99.90;;;;;;5037441;28;20049;-81
2022/08/18 11:50:54;;;;;;;7.25;6.22;;;26.90;99.90;;;;;;5023036;28;20033;-81
2022/08/18 11:53:32;;;;;;;7.30;6.60;;;26.90;99.90;;;;;;5039840;28;20029;-80
2022/08/18 11:56:12;;;;;;;8.55;7.05;;;27.00;99.90;;;;;;5025010;28;20075;-79
2022/08/18 11:58:54;;;;;;;10.20;6.35;;;27.00;99.90;;;;;;5024250;28;20071;-83
2022/08/18 12:01:31;;;;;;;7.85;6.18;;;27.00;99.90;;;;;;5035136;28;20052;-83
2022/08/18 12:04:06;;;;;;;8.38;6.72;;;26.90;99.90;;;;;;5020601;28;20027;-83
2022/08/18 12:06:32;;;;;;;9.60;6.63;;;26.90;99.90;;;;;;5040821;28;20313;-83
2022/08/18 12:09:19;;;;;;;8.23;6.63;;;26.80;99.90;;;;;;5041458;28;20037;-83
2022/08/18 12:11:50;;;;;;;8.75;6.53;;;26.70;99.90;;;;;;5021458;28;20038;-84
2022/08/18 12:14:28;;;;;;;7.53;6.80;;;26.70;99.90;;;;;;5040842;28;20068;-84
2022/08/18 12:16:54;;;;;;;9.00;7.85;;;26.70;99.90;;;;;;5039595;28;20017;-84
2022/08/18 12:19:20;;;;;;;8.90;7.35;;;26.70;99.90;;;;;;5035280;28;20052;-83
2022/08/18 12:21:58;;;;;;;10.60;7.03;;;26.80;99.90;;;;;;5005833;28;20037;-83
2022/08/18 12:24:29;;;;;;;7.15;6.40;;;26.80;99.90;;;;;;4989226;28;20025;-83
2022/08/18 12:26:57;;;;;;;7.88;6.30;;;26.80;99.90;;;;;;5006433;28;20034;-84
2022/08/18 12:29:23;;;;;;;14.02;7.78;;;26.80;99.90;;;;;;5003416;28;20094;-83
2022/08/18 12:31:50;;;;;;;9.00;7.47;;;26.70;99.90;;;;;;5003388;28;20225;-83
2022/08/18 12:34:18;;;;;;;9.30;6.80;;;26.70;99.90;;;;;;5004560;28;20030;-84
2022/08/18 12:36:44;;;;;;;10.30;7.55;;;26.60;99.90;;;;;;5039277;28;20033;-83
2022/08/18 12:39:10;;;;;;;8.98;7.28;;;26.60;99.90;;;;;;5039470;28;20022;-84
2022/08/18 12:41:36;;;;;;;7.53;6.82;;;26.60;99.90;;;;;;5039022;28;20038;-84
2022/08/18 12:44:02;;;;;;;8.38;7.47;;;26.50;99.90;;;;;;5038623;28;20014;-84
2022/08/18 12:46:28;;;;;;;8.48;7.68;;;26.50;99.90;;;;;;5022888;28;20033;-85
2022/08/18 12:48:54;;;;;;;13.48;7.72;;;26.50;99.90;;;;;;5038937;28;20093;-84
2022/08/18 12:51:20;;;;;;;9.02;6.97;;;26.50;99.90;;;;;;5037907;28;20034;-84
2022/08/18 12:53:46;;;;;;;9.50;6.85;;;26.50;99.90;;;;;;5003280;28;20049;-81
2022/08/18 12:56:24;;;;;;;9.38;6.70;;;26.50;99.90;;;;;;5004955;28;20042;-83
2022/08/18 12:58:50;;;;;;;7.63;6.75;;;26.60;99.90;;;;;;5002510;28;20384;-86
2022/08/18 13:01:17;;;;;;;8.43;7.03;;;26.60;99.90;;;;;;5003002;28;20037;-84
2022/08/18 13:03:45;;;;;;;8.35;7.45;;;26.70;99.90;;;;;;5003116;28;20030;-84
2022/08/18 13:06:12;;;;;;;7.53;6.63;;;26.80;99.90;;;;;;5018906;28;20123;-84
2022/08/18 13:08:37;;;;;;;;;;;27.00;99.90;;;;;;5038809;28;20025;-85
2022/08/18 13:11:04;;;;;;;7.35;6.22;;;27.40;99.90;;;;;;5005547;28;19948;-85
2022/08/18 13:13:29;;;;;;;;;;;27.90;99.90;;;;;;5007938;28;20018;-85
2022/08/18 13:15:55;;;;;;;7.57;6.30;;;28.50;99.90;;;;;;5023021;28;19976;-85
2022/08/18 13:18:21;;;;;;;9.80;7.32;;;29.20;99.90;;;;;;5038004;28;20362;-85
2022/08/18 13:20:48;;;;;;;8.57;5.97;;;29.80;95.70;;;;;;5025432;28;20093;-86
2022/08/18 13:23:14;;;;;;;10.05;6.82;;;30.40;92.10;;;;;;5002024;28;20220;-86
2022/08/18 13:25:40;;;;;;;8.35;7.30;;;31.00;93.70;;;;;;5001810;28;20033;-86
2022/08/18 13:28:06;;;;;;;;;;;31.40;83.50;;;;;;5002440;28;20145;-85
2022/08/18 13:30:32;;;;;;;8.75;7.50;;;31.60;86.20;;;;;;5001739;28;20136;-85
2022/08/18 13:32:59;;;;;;;7.15;6.45;;;32.10;89.00;;;;;;5001583;28;20052;-86